createdAt,value
2023-07-25T00:03:42.593Z,19.50
2023-07-25T00:08:45.608Z,19.50
2023-07-25T00:13:48.034Z,19.60
2023-07-25T00:18:51.844Z,19.80
2023-07-25T00:23:54.634Z,19.90
2023-07-25T00:28:57.085Z,20.00
2023-07-25T00:33:59.602Z,20.10
2023-07-25T00:39:02.120Z,20.10
2023-07-25T00:44:04.924Z,20.20
2023-07-25T00:49:07.421Z,20.20
2023-07-25T00:54:09.867Z,20.30
2023-07-25T00:59:12.737Z,20.10
2023-07-25T01:04:15.316Z,19.90
2023-07-25T01:09:35.688Z,20.00
2023-07-25T01:14:39.546Z,20.00
2023-07-25T01:19:45.010Z,20.00
2023-07-25T01:24:49.054Z,19.90
2023-07-25T01:29:51.637Z,19.80
2023-07-25T01:34:54.122Z,19.90
2023-07-25T01:39:56.611Z,20.00
2023-07-25T01:44:59.207Z,19.90
2023-07-25T01:50:01.732Z,19.70
2023-07-25T01:55:04.804Z,19.60
2023-07-25T02:00:07.799Z,19.50
2023-07-25T02:05:15.166Z,19.20
2023-07-25T02:10:17.766Z,18.90
2023-07-25T02:15:20.330Z,18.90
2023-07-25T02:20:27.004Z,18.80
2023-07-25T02:25:30.191Z,18.70
2023-07-25T02:30:32.733Z,18.60
2023-07-25T02:35:35.327Z,18.60
2023-07-25T02:40:39.274Z,18.60
2023-07-25T02:45:41.911Z,18.80
2023-07-25T02:50:44.521Z,18.90
2023-07-25T02:55:47.060Z,19.00
2023-07-25T03:00:50.645Z,19.00
2023-07-25T03:05:53.233Z,19.20
2023-07-25T03:10:55.807Z,19.30
2023-07-25T03:15:58.451Z,19.30
2023-07-25T03:21:00.995Z,19.30
2023-07-25T03:26:04.802Z,19.30
2023-07-25T03:31:08.075Z,19.30
2023-07-25T03:36:10.959Z,19.20
2023-07-25T03:41:13.560Z,19.20
2023-07-25T03:46:16.113Z,19.80
2023-07-25T03:51:18.702Z,20.00
2023-07-25T03:56:21.166Z,19.80
2023-07-25T04:01:23.771Z,19.60
2023-07-25T04:06:26.589Z,20.00
2023-07-25T04:11:29.342Z,19.80
2023-07-25T04:16:33.505Z,19.50
2023-07-25T04:21:36.252Z,19.60
2023-07-25T04:26:39.114Z,19.60
2023-07-25T04:31:41.734Z,19.50
2023-07-25T04:36:44.318Z,19.70
2023-07-25T04:41:47.023Z,19.90
2023-07-25T04:46:49.511Z,20.00
2023-07-25T04:51:52.110Z,20.10
2023-07-25T04:56:54.677Z,20.10
2023-07-25T05:01:57.124Z,20.00
2023-07-25T05:06:59.681Z,20.00
2023-07-25T05:12:05.292Z,20.20
2023-07-25T05:17:07.801Z,20.10
2023-07-25T05:22:10.236Z,20.30
2023-07-25T05:27:12.850Z,20.30
2023-07-25T05:32:15.394Z,20.00
2023-07-25T05:37:19.719Z,20.20
2023-07-25T05:42:22.191Z,20.00
2023-07-25T05:47:24.657Z,20.10
2023-07-25T05:52:27.253Z,20.10
2023-07-25T05:57:29.772Z,20.20
2023-07-25T06:02:32.484Z,20.20
2023-07-25T06:07:35.072Z,20.40
2023-07-25T06:12:37.557Z,20.40
2023-07-25T06:17:40.058Z,20.30
2023-07-25T06:22:42.719Z,20.30
2023-07-25T06:27:45.289Z,20.60
2023-07-25T06:32:48.277Z,20.60
2023-07-25T06:37:50.846Z,20.50
2023-07-25T06:42:53.445Z,20.50
2023-07-25T06:47:56.110Z,20.70
2023-07-25T06:52:58.619Z,21.00
2023-07-25T06:58:01.234Z,21.20
2023-07-25T07:03:04.364Z,20.80
2023-07-25T07:08:07.035Z,20.60
2023-07-25T07:13:10.716Z,20.80
2023-07-25T07:18:13.333Z,20.90
2023-07-25T07:23:16.418Z,21.10
2023-07-25T07:28:20.200Z,21.30
2023-07-25T07:33:22.854Z,21.40
2023-07-25T07:38:25.358Z,21.20
2023-07-25T07:43:27.945Z,21.20
2023-07-25T07:48:30.529Z,21.30
2023-07-25T07:53:32.907Z,21.30
2023-07-25T07:58:35.589Z,21.10
2023-07-25T08:03:38.399Z,20.90
2023-07-25T08:08:41.963Z,21.00
2023-07-25T08:13:44.814Z,21.40
2023-07-25T08:18:47.420Z,21.60
2023-07-25T08:23:49.983Z,21.90
2023-07-25T08:28:52.519Z,21.70
2023-07-25T08:33:55.069Z,21.70
2023-07-25T08:38:58.646Z,21.90
2023-07-25T08:44:02.866Z,21.80
2023-07-25T08:49:10.317Z,21.70
2023-07-25T08:54:16.078Z,21.80
2023-07-25T08:59:19.477Z,21.70
2023-07-25T09:04:23.362Z,21.90
2023-07-25T09:09:25.905Z,21.90
2023-07-25T09:14:28.640Z,21.90
2023-07-25T09:19:31.693Z,22.20
2023-07-25T09:24:41.299Z,22.40
2023-07-25T09:29:44.366Z,22.40
2023-07-25T09:34:47.970Z,22.30
2023-07-25T09:39:52.549Z,22.40
2023-07-25T09:44:57.897Z,22.40
2023-07-25T09:50:00.496Z,22.20
2023-07-25T09:55:03.104Z,22.20
2023-07-25T10:00:07.553Z,22.30
2023-07-25T10:05:12.196Z,22.40
2023-07-25T10:10:15.035Z,22.30
2023-07-25T10:15:18.318Z,22.50
2023-07-25T10:20:25.398Z,22.60
2023-07-25T10:25:29.242Z,22.40
2023-07-25T10:30:34.369Z,22.40
2023-07-25T10:35:55.910Z,22.60
2023-07-25T10:41:10.810Z,22.80
2023-07-25T10:46:21.589Z,23.00
2023-07-25T10:51:24.512Z,23.10
2023-07-25T10:56:27.124Z,23.20
2023-07-25T11:01:38.499Z,23.10
2023-07-25T11:06:41.109Z,23.10
2023-07-25T11:11:47.906Z,23.00
2023-07-25T11:16:53.014Z,22.90
2023-07-25T11:21:55.848Z,22.80
2023-07-25T11:27:03.928Z,22.70
2023-07-25T11:32:06.891Z,23.00
2023-07-25T11:37:11.332Z,22.90
2023-07-25T11:42:15.668Z,23.00
2023-07-25T11:47:18.282Z,22.80
2023-07-25T11:52:21.447Z,22.90
2023-07-25T11:57:24.076Z,22.90
2023-07-25T12:02:27.486Z,22.90
2023-07-25T12:07:51.533Z,22.90
2023-07-25T12:12:58.206Z,22.90
2023-07-25T12:18:02.872Z,23.00
2023-07-25T12:23:08.803Z,23.00
2023-07-25T12:28:11.456Z,23.20
2023-07-25T12:33:14.218Z,23.30
2023-07-25T12:38:16.871Z,23.20
2023-07-25T12:43:20.308Z,22.70
2023-07-25T12:48:23.124Z,22.80
2023-07-25T12:53:25.654Z,23.00
2023-07-25T12:58:31.190Z,23.10
2023-07-25T13:03:41.755Z,23.00
2023-07-25T13:08:44.726Z,23.00
2023-07-25T13:13:47.408Z,22.90
2023-07-25T13:18:50.014Z,22.60
2023-07-25T13:23:52.578Z,22.60
2023-07-25T13:28:55.093Z,22.60
2023-07-25T13:33:57.649Z,23.00
2023-07-25T13:39:00.325Z,23.20
2023-07-25T13:44:02.913Z,23.50
2023-07-25T13:49:05.420Z,23.40
2023-07-25T13:54:07.980Z,23.40
2023-07-25T13:59:12.295Z,23.60
2023-07-25T14:04:14.878Z,23.50
2023-07-25T14:09:20.917Z,23.50
2023-07-25T14:14:23.444Z,23.60
2023-07-25T14:19:26.044Z,23.80
2023-07-25T14:24:28.808Z,23.90
2023-07-25T14:29:31.451Z,23.90
2023-07-25T14:34:34.024Z,24.10
2023-07-25T14:39:36.625Z,24.10
2023-07-25T14:44:39.138Z,24.20
2023-07-25T14:49:41.672Z,24.30
2023-07-25T14:54:44.255Z,24.10
2023-07-25T14:59:47.103Z,24.00
2023-07-25T15:04:49.703Z,23.90
2023-07-25T15:09:52.709Z,23.80
2023-07-25T15:14:55.225Z,23.70
2023-07-25T15:20:00.483Z,23.70
2023-07-25T15:25:03.196Z,23.70
2023-07-25T15:30:06.378Z,23.60
2023-07-25T15:35:10.278Z,23.40
2023-07-25T15:40:12.976Z,23.30
2023-07-25T15:45:15.536Z,23.20
2023-07-25T15:50:20.188Z,23.00
2023-07-25T15:55:24.841Z,23.00
2023-07-25T16:00:27.726Z,23.00
2023-07-25T16:05:30.440Z,22.90
2023-07-25T16:10:33.166Z,22.60
2023-07-25T16:15:35.727Z,22.20
2023-07-25T16:20:38.365Z,21.90
2023-07-25T16:25:42.045Z,21.70
2023-07-25T16:30:44.664Z,21.70
2023-07-25T16:35:47.238Z,21.90
2023-07-25T16:40:51.702Z,22.30
2023-07-25T16:45:54.213Z,22.60
2023-07-25T16:50:57.049Z,23.00
2023-07-25T16:55:59.494Z,23.10
2023-07-25T17:01:02.668Z,22.90
2023-07-25T17:06:05.503Z,22.50
2023-07-25T17:11:12.556Z,22.30
2023-07-25T17:16:15.214Z,22.20
2023-07-25T17:21:38.155Z,22.00
2023-07-25T17:26:40.341Z,21.80
2023-07-25T17:31:43.120Z,21.60
2023-07-25T17:36:45.727Z,21.60
2023-07-25T17:41:48.164Z,21.50
2023-07-25T17:46:50.949Z,21.40
2023-07-25T17:51:53.593Z,21.60
2023-07-25T17:56:56.181Z,21.90
2023-07-25T18:01:58.825Z,21.90
2023-07-25T18:07:01.386Z,21.90
2023-07-25T18:12:04.361Z,21.80
2023-07-25T18:17:07.188Z,21.80
2023-07-25T18:22:10.340Z,21.60
2023-07-25T18:27:12.882Z,21.50
2023-07-25T18:32:15.380Z,21.40
2023-07-25T18:37:17.915Z,21.10
2023-07-25T18:42:20.430Z,20.90
2023-07-25T18:47:33.584Z,20.60
2023-07-25T18:52:37.919Z,20.50
2023-07-25T18:57:40.533Z,20.30
2023-07-25T19:02:43.192Z,20.10
2023-07-25T19:07:46.177Z,19.90
2023-07-25T19:12:48.813Z,19.80
2023-07-25T19:17:51.373Z,19.60
2023-07-25T19:22:54.050Z,19.40
2023-07-25T19:27:56.582Z,19.40
2023-07-25T19:32:59.249Z,19.20
2023-07-25T19:38:01.861Z,19.10
2023-07-25T19:43:04.476Z,19.10
2023-07-25T19:48:07.327Z,18.90
2023-07-25T19:53:09.899Z,18.80
2023-07-25T19:58:12.401Z,18.70
2023-07-25T20:03:15.080Z,18.50
2023-07-25T20:08:17.786Z,18.40
2023-07-25T20:13:20.447Z,18.40
2023-07-25T20:18:23.073Z,18.30
2023-07-25T20:23:26.020Z,18.30
2023-07-25T20:28:28.632Z,18.20
2023-07-25T20:33:33.979Z,18.10
2023-07-25T20:38:36.782Z,18.10
2023-07-25T20:43:39.538Z,18.10
2023-07-25T20:48:42.148Z,18.00
2023-07-25T20:53:44.767Z,18.00
2023-07-25T20:58:47.299Z,18.00
2023-07-25T21:03:49.878Z,18.10
2023-07-25T21:08:52.504Z,18.10
2023-07-25T21:13:55.070Z,18.10
2023-07-25T21:18:57.656Z,17.90
2023-07-25T21:24:00.315Z,17.80
2023-07-25T21:29:02.798Z,17.90
2023-07-25T21:34:05.560Z,17.90
2023-07-25T21:39:08.504Z,17.70
2023-07-25T21:44:10.923Z,17.60
2023-07-25T21:49:13.492Z,17.50
2023-07-25T21:54:16.083Z,17.50
2023-07-25T21:59:18.838Z,17.60
2023-07-25T22:04:21.366Z,17.60
2023-07-25T22:09:23.770Z,17.60
2023-07-25T22:14:26.260Z,17.60
2023-07-25T22:19:30.385Z,17.50
2023-07-25T22:24:33.196Z,17.50
2023-07-25T22:29:35.886Z,17.60
2023-07-25T22:34:39.280Z,17.50
2023-07-25T22:39:41.929Z,17.40
2023-07-25T22:44:44.495Z,17.40
2023-07-25T22:49:54.228Z,17.50
2023-07-25T22:54:56.845Z,17.40
2023-07-25T22:59:59.511Z,17.40
2023-07-25T23:05:02.512Z,17.40
2023-07-25T23:10:05.405Z,17.50
2023-07-25T23:15:11.338Z,17.40
2023-07-25T23:20:13.881Z,17.40
2023-07-25T23:25:16.493Z,17.50
2023-07-25T23:30:19.314Z,17.50
2023-07-25T23:35:21.910Z,17.60
2023-07-25T23:40:24.780Z,17.60
2023-07-25T23:45:27.423Z,17.60
2023-07-25T23:50:30.134Z,17.40
2023-07-25T23:55:33.746Z,17.30
